Time;durP1;ratioP1;P1;durP2;ratioP2;P2;SDS_P1;SDS_P2;PMS_P1;PMS_P2;Temp;Humidity;BMP_temperature;BMP_pressure;BME280_temperature;BME280_humidity;BME280_pressure;Samples;Min_cycle;Max_cycle;Signal;HPM_P1;HPM_P2
2023/05/11 00:00:37;;;;;;;8.30;5.20;;;;;;;3.02;100.00;100741.47;109172;1253;58223;-46
2023/05/11 00:03:03;;;;;;;9.50;5.10;;;;;;;3.00;100.00;100743.59;109098;1254;72804;-46
2023/05/11 00:05:30;;;;;;;12.90;6.00;;;;;;;2.98;100.00;100741.27;109143;1254;66992;-45
2023/05/11 00:07:56;;;;;;;11.10;5.60;;;;;;;2.98;100.00;100741.11;109160;1257;58540;-45
2023/05/11 00:10:23;;;;;;;9.40;6.30;;;;;;;2.98;100.00;100745.73;109061;1256;58368;-52
2023/05/11 00:12:49;;;;;;;18.70;7.20;;;;;;;2.95;100.00;100743.79;109071;1254;58490;-45
2023/05/11 00:15:16;;;;;;;14.10;7.80;;;;;;;2.93;100.00;100742.73;109111;1254;60164;-51
2023/05/11 00:17:44;;;;;;;13.00;7.60;;;;;;;2.93;100.00;100741.66;109153;1254;67442;-48
2023/05/11 00:20:10;;;;;;;18.00;8.60;;;;;;;2.94;100.00;100739.89;109094;1254;72100;-49
2023/05/11 00:22:38;;;;;;;16.80;7.90;;;;;;;2.97;100.00;100740.23;109092;1254;60647;-44
2023/05/11 00:25:05;;;;;;;14.70;8.10;;;;;;;2.99;100.00;100746.42;109082;1254;60215;-46
2023/05/11 00:27:32;;;;;;;13.30;7.20;;;;;;;2.99;100.00;100747.48;109166;1254;73154;-46
2023/05/11 00:29:59;;;;;;;22.50;8.50;;;;;;;2.99;100.00;100744.83;108866;1255;67206;-49
2023/05/11 00:32:25;;;;;;;14.50;7.40;;;;;;;2.99;100.00;100742.35;109010;1256;73925;-52
2023/05/11 00:34:52;;;;;;;13.80;8.40;;;;;;;2.96;100.00;100745.56;109150;1254;59405;-47
2023/05/11 00:37:18;;;;;;;16.00;7.60;;;;;;;2.94;100.00;100744.32;107916;1257;59923;-44
2023/05/11 00:39:45;;;;;;;16.50;8.00;;;;;;;2.94;100.00;100747.15;105770;1254;74084;-46
2023/05/11 00:42:11;;;;;;;14.40;8.00;;;;;;;2.93;100.00;100743.78;105327;1257;68173;-41
2023/05/11 00:44:38;;;;;;;12.00;8.00;;;;;;;2.91;100.00;100744.85;105572;1257;72789;-44
2023/05/11 00:47:04;;;;;;;14.10;7.50;;;;;;;2.90;100.00;100744.84;105413;1258;60430;-42
2023/05/11 00:49:31;;;;;;;10.70;7.20;;;;;;;2.87;100.00;100745.04;105285;1261;62507;-41
2023/05/11 00:52:01;;;;;;;10.80;6.50;;;;;;;2.84;100.00;100746.63;105580;1254;60543;-43
2023/05/11 00:54:29;;;;;;;11.40;7.00;;;;;;;2.78;100.00;100745.23;105860;1256;66193;-42
2023/05/11 00:56:56;;;;;;;16.50;8.20;;;;;;;2.73;100.00;100750.89;105690;1257;71954;-44
2023/05/11 00:59:22;;;;;;;9.40;6.50;;;;;;;2.72;100.00;100748.95;105415;1257;60721;-43
2023/05/11 01:01:49;;;;;;;13.70;8.00;;;;;;;2.69;100.00;100750.38;105582;1259;60536;-41
2023/05/11 01:04:16;;;;;;;12.50;6.60;;;;;;;2.67;100.00;100754.27;105499;1259;72990;-42
2023/05/11 01:06:54;;;;;;;10.10;6.10;;;;;;;2.64;100.00;100756.92;106218;1259;66918;-44
2023/05/11 01:09:36;;;;;;;13.00;6.30;;;;;;;2.60;100.00;100759.95;105552;1260;71463;-46
2023/05/11 01:12:14;;;;;;;10.30;5.90;;;;;;;2.60;100.00;100757.46;105393;1259;61053;-46
2023/05/11 01:14:48;;;;;;;7.60;5.50;;;;;;;2.60;100.00;100755.87;105444;1257;60428;-46
2023/05/11 01:17:19;;;;;;;9.50;5.80;;;;;;;2.59;100.00;100757.11;105994;1260;72541;-47
2023/05/11 01:19:49;;;;;;;13.40;6.00;;;;;;;2.58;100.00;100757.98;105188;1254;67989;-46
2023/05/11 01:22:25;;;;;;;15.20;6.20;;;;;;;2.58;100.00;100757.81;105456;1260;71734;-48
2023/05/11 01:25:13;;;;;;;11.00;6.30;;;;;;;2.61;100.00;100763.31;105296;1262;60435;-47
2023/05/11 01:27:50;;;;;;;8.70;5.80;;;;;;;2.63;100.00;100764.20;105355;1259;60432;-47
2023/05/11 01:30:25;;;;;;;14.30;6.10;;;;;;;2.61;100.00;100764.20;105465;1257;72941;-46
2023/05/11 01:32:54;;;;;;;14.50;6.40;;;;;;;2.56;100.00;100765.42;105498;1257;66630;-46
2023/05/11 01:35:22;;;;;;;11.30;6.50;;;;;;;2.50;100.00;100768.09;105435;1259;72928;-46
2023/05/11 01:37:50;;;;;;;9.20;5.60;;;;;;;2.41;100.00;100765.60;105674;1260;60517;-46
2023/05/11 01:40:26;;;;;;;13.60;6.30;;;;;;;2.36;100.00;100764.02;105388;1259;60539;-46
2023/05/11 01:43:01;;;;;;;11.50;4.50;;;;;;;2.33;100.00;100763.46;105454;1259;74065;-48
2023/05/11 01:45:28;;;;;;;12.00;5.40;;;;;;;2.31;100.00;100763.11;105486;1263;68510;-48
2023/05/11 01:47:54;;;;;;;8.70;5.60;;;;;;;2.28;100.00;100761.70;105556;1257;71951;-46
2023/05/11 01:50:21;;;;;;;13.10;5.20;;;;;;;2.25;100.00;100760.63;105440;1259;60428;-48
2023/05/11 01:52:48;;;;;;;15.00;5.80;;;;;;;2.21;100.00;100767.35;105884;1255;60475;-44
2023/05/11 01:55:16;;;;;;;11.30;5.90;;;;;;;2.19;100.00;100765.23;105347;1262;60503;-45
2023/05/11 01:57:43;;;;;;;6.50;3.60;;;;;;;2.15;100.00;100769.46;105840;1253;67545;-45
2023/05/11 02:00:10;;;;;;;10.80;5.10;;;;;;;2.11;100.00;100769.46;105206;1267;60559;-45
2023/05/11 02:02:41;;;;;;;9.40;3.70;;;;;;;2.09;100.00;100769.29;105600;1260;63272;-43
2023/05/11 02:05:07;;;;;;;12.20;4.80;;;;;;;2.09;100.00;100768.05;105224;1262;60412;-42
2023/05/11 02:07:35;;;;;;;10.40;3.90;;;;;;;2.10;100.00;100769.81;105209;1254;74155;-46
2023/05/11 02:10:01;;;;;;;11.20;3.50;;;;;;;2.14;100.00;100770.52;105145;1263;68163;-45
2023/05/11 02:12:29;;;;;;;10.40;3.90;;;;;;;2.20;100.00;100769.66;105522;1259;72813;-43
2023/05/11 02:14:56;;;;;;;7.50;4.20;;;;;;;2.26;100.00;100774.98;105231;1254;60875;-45
2023/05/11 02:17:23;;;;;;;13.30;5.70;;;;;;;2.29;100.00;100775.87;105804;1256;60478;-46
2023/05/11 02:19:49;;;;;;;9.20;4.80;;;;;;;2.33;100.00;100775.52;105285;1257;72360;-48
2023/05/11 02:22:16;;;;;;;13.90;5.60;;;;;;;2.36;100.00;100774.83;105640;1260;68526;-48
2023/05/11 02:24:43;;;;;;;12.70;6.80;;;;;;;2.40;100.00;100780.12;105305;1259;72978;-44
2023/05/11 02:27:11;;;;;;;9.50;5.30;;;;;;;2.42;100.00;100782.96;105450;1257;60437;-47
2023/05/11 02:29:38;;;;;;;10.30;6.00;;;;;;;2.40;100.00;100788.45;105788;1263;61374;-45
2023/05/11 02:32:06;;;;;;;11.60;6.40;;;;;;;2.37;100.00;100787.40;105371;1254;73628;-47
2023/05/11 02:34:45;;;;;;;12.40;5.50;;;;;;;2.34;100.00;100794.30;105728;1258;68021;-44
2023/05/11 02:37:13;;;;;;;8.10;4.80;;;;;;;2.31;100.00;100796.06;106286;1258;72828;-44
2023/05/11 02:39:40;;;;;;;12.90;5.60;;;;;;;2.27;100.00;100795.00;106328;1260;60230;-44
2023/05/11 02:42:13;;;;;;;9.10;4.80;;;;;;;2.25;100.00;100795.34;106213;1256;60540;-48
2023/05/11 02:44:43;;;;;;;11.50;5.20;;;;;;;2.26;100.00;100797.83;106782;1261;73250;-46
2023/05/11 02:47:11;;;;;;;9.80;4.50;;;;;;;2.33;100.00;100798.36;105609;1258;68112;-45
2023/05/11 02:49:38;;;;;;;9.00;4.20;;;;;;;2.39;100.00;100796.96;106001;1260;72119;-46
2023/05/11 02:52:06;;;;;;;7.10;4.10;;;;;;;2.45;100.00;100802.11;105206;1260;60997;-47
2023/05/11 02:54:34;;;;;;;10.60;4.40;;;;;;;2.52;100.00;100802.11;108867;1254;60129;-45
2023/05/11 02:57:00;;;;;;;9.90;4.30;;;;;;;2.59;100.00;100802.11;108828;1262;72973;-46
2023/05/11 02:59:27;;;;;;;9.60;4.00;;;;;;;2.66;100.00;100805.48;108908;1260;66878;-46
2023/05/11 03:01:54;;;;;;;11.50;4.80;;;;;;;2.74;100.00;100807.98;108942;1254;71786;-45
2023/05/11 03:04:21;;;;;;;8.90;4.20;;;;;;;2.82;100.00;100814.17;108801;1259;60120;-46
2023/05/11 03:06:47;;;;;;;6.60;3.60;;;;;;;2.91;100.00;100816.66;106348;1254;60412;-45
2023/05/11 03:09:14;;;;;;;6.20;4.10;;;;;;;2.99;100.00;100819.48;105371;1260;74187;-42
2023/05/11 03:11:44;;;;;;;10.00;4.30;;;;;;;3.07;100.00;100820.02;105284;1260;69775;-47
2023/05/11 03:14:11;;;;;;;10.00;5.20;;;;;;;3.13;100.00;100824.63;109081;1254;71213;-45
2023/05/11 03:16:37;;;;;;;6.90;4.20;;;;;;;3.19;100.00;100826.21;108914;1254;58662;-46
2023/05/11 03:19:05;;;;;;;9.50;5.00;;;;;;;3.26;100.00;100824.42;108917;1259;60411;-46
2023/05/11 03:21:33;;;;;;;7.20;4.40;;;;;;;3.32;100.00;100826.02;108726;1262;71957;-45
2023/05/11 03:23:59;;;;;;;6.80;4.70;;;;;;;3.37;100.00;100827.42;106887;1254;69013;-47
2023/05/11 03:26:26;;;;;;;9.20;5.10;;;;;;;3.41;100.00;100829.36;105280;1256;60558;-46
2023/05/11 03:28:53;;;;;;;9.40;4.70;;;;;;;3.44;100.00;100830.23;108898;1257;61207;-47
2023/05/11 03:31:19;;;;;;;14.20;5.10;;;;;;;3.48;100.00;100833.97;107077;1254;60634;-45
2023/05/11 03:33:46;;;;;;;10.40;4.90;;;;;;;3.56;100.00;100835.72;109082;1254;73726;-46
2023/05/11 03:36:13;;;;;;;11.10;5.00;;;;;;;3.65;100.00;100836.93;107280;1257;68934;-43
2023/05/11 03:38:39;;;;;;;9.20;5.00;;;;;;;3.72;100.00;100841.17;104877;1255;73002;-45
2023/05/11 03:41:09;;;;;;;9.90;4.20;;;;;;;3.77;100.00;100839.55;108768;1259;60474;-46
2023/05/11 03:43:36;;;;;;;8.90;4.00;;;;;;;3.86;100.00;100844.66;105473;1263;60546;-46
2023/05/11 03:46:03;;;;;;;12.20;3.70;;;;;;;3.96;100.00;100853.86;105152;1259;259539;-46
2023/05/11 03:49:52;;;;;;;8.30;4.50;;;;;;;4.15;100.00;100856.45;102353;1295;601327;-46
2023/05/11 03:52:19;;;;;;;6.40;4.20;;;;;;;4.25;100.00;100861.37;104469;1273;59802;-45
2023/05/11 03:54:45;;;;;;;8.20;4.40;;;;;;;4.37;100.00;100860.24;104396;1267;60996;-46
2023/05/11 03:57:13;;;;;;;9.30;6.10;;;;;;;4.50;100.00;100858.92;104515;1272;74311;-45
2023/05/11 03:59:40;;;;;;;9.30;5.30;;;;;;;4.68;100.00;100864.86;105914;1266;66254;-44
2023/05/11 04:02:07;;;;;;;7.60;5.50;;;;;;;4.87;100.00;100871.65;104451;1266;72921;-46
2023/05/11 04:04:36;;;;;;;11.50;5.80;;;;;;;5.06;100.00;100880.23;104723;1271;161305;-47
2023/05/11 04:07:03;;;;;;;10.90;6.80;;;;;;;5.23;100.00;100876.52;104678;1267;61012;-46
2023/05/11 04:09:30;;;;;;;12.10;7.60;;;;;;;5.43;100.00;100877.77;104860;1264;73176;-45
2023/05/11 04:11:56;;;;;;;10.10;6.70;;;;;;;5.67;100.00;100884.47;104596;1267;67726;-46
2023/05/11 04:14:23;;;;;;;12.70;6.10;;;;;;;5.91;100.00;100888.67;104648;1267;71165;-47
2023/05/11 04:16:50;;;;;;;9.50;6.00;;;;;;;6.17;100.00;100894.98;104708;1264;59814;-46
2023/05/11 04:19:17;;;;;;;9.90;5.00;;;;;;;6.39;100.00;100902.35;104546;1266;60348;-46
2023/05/11 04:21:45;;;;;;;11.90;6.10;;;;;;;6.61;100.00;100911.16;104665;1263;71584;-44
2023/05/11 04:24:11;;;;;;;8.70;5.30;;;;;;;6.79;100.00;100911.08;105503;1253;70663;-48
2023/05/11 04:26:38;;;;;;;4.70;3.50;;;;;;;6.95;100.00;100912.62;105420;1259;75001;-47
2023/05/11 04:29:05;;;;;;;8.80;3.70;;;;;;;7.09;100.00;100917.40;105520;1254;59656;-47
2023/05/11 04:31:32;;;;;;;5.30;3.50;;;;;;;7.23;100.00;100923.60;105396;1253;62298;-48
2023/05/11 04:34:01;;;;;;;5.00;2.40;;;;;;;7.37;100.00;100932.30;105452;1254;71522;-47
2023/05/11 04:36:28;;;;;;;7.50;2.50;;;;;;;7.51;100.00;100932.61;105314;1253;68618;-47
2023/05/11 04:38:55;;;;;;;3.60;2.30;;;;;;;7.66;100.00;100937.17;105427;1254;72783;-46
2023/05/11 04:41:22;;;;;;;4.90;2.60;;;;;;;7.83;100.00;100940.08;105475;1257;59857;-48
2023/05/11 04:43:50;;;;;;;3.60;2.00;;;;;;;7.97;100.00;100937.49;105856;1251;59848;-45
2023/05/11 04:46:17;;;;;;;3.70;2.60;;;;;;;8.11;100.00;100942.59;105471;1253;73725;-45
2023/05/11 04:48:44;;;;;;;4.10;3.20;;;;;;;8.23;100.00;100946.99;105068;1254;70644;-47
2023/05/11 04:51:11;;;;;;;8.00;3.20;;;;;;;8.35;100.00;100950.73;104953;1260;74666;-46
2023/05/11 04:53:40;;;;;;;7.10;3.20;;;;;;;8.45;100.00;100954.81;105537;1257;59811;-46
2023/05/11 04:56:08;;;;;;;5.90;4.20;;;;;;;8.54;100.00;100957.50;105458;1253;62128;-48
2023/05/11 04:58:35;;;;;;;7.30;3.90;;;;;;;8.62;100.00;100956.79;105446;1259;74332;-47
2023/05/11 05:01:02;;;;;;;7.80;4.50;;;;;;;8.69;100.00;100959.29;105677;1254;70139;-48
2023/05/11 05:03:29;;;;;;;14.80;6.00;;;;;;;8.76;100.00;100960.95;104869;1260;73561;-47
2023/05/11 05:05:56;;;;;;;12.00;5.20;;;;;;;8.83;100.00;100964.02;104943;1259;60400;-48
2023/05/11 05:08:23;;;;;;;12.70;5.50;;;;;;;8.89;100.00;100967.11;104943;1258;60405;-48
2023/05/11 05:10:49;;;;;;;10.70;4.70;;;;;;;8.96;100.00;100968.73;105469;1255;75774;-48
2023/05/11 05:13:16;;;;;;;12.80;5.40;;;;;;;9.04;100.00;100975.35;106939;1257;70943;-48
2023/05/11 05:15:43;;;;;;;13.00;5.70;;;;;;;9.14;100.00;100978.73;105454;1257;71732;-46
2023/05/11 05:18:10;;;;;;;10.60;6.20;;;;;;;9.25;100.00;100980.45;105124;1256;60181;-46
2023/05/11 05:20:38;;;;;;;11.30;5.50;;;;;;;9.37;100.00;100976.56;105406;1254;61189;-47
2023/05/11 05:23:05;;;;;;;9.50;4.70;;;;;;;9.49;100.00;100981.64;105415;1254;75597;-47
2023/05/11 05:25:32;;;;;;;7.80;4.10;;;;;;;9.64;100.00;100985.20;105470;1254;70412;-46
2023/05/11 05:27:59;;;;;;;10.10;4.60;;;;;;;9.80;100.00;100987.48;105665;1257;74036;-47
2023/05/11 05:30:26;;;;;;;6.50;3.20;;;;;;;9.96;100.00;100986.89;105461;1254;61011;-48
2023/05/11 05:32:53;;;;;;;6.50;3.30;;;;;;;10.13;100.00;100991.84;105606;1259;60458;-48
2023/05/11 05:35:22;;;;;;;4.90;2.20;;;;;;;10.29;100.00;100995.02;105491;1253;72315;-47
2023/05/11 05:37:49;;;;;;;4.60;3.10;;;;;;;10.45;100.00;101002.10;105364;1254;69616;-46
2023/05/11 05:40:16;;;;;;;4.70;2.00;;;;;;;10.60;100.00;100999.15;105432;1253;74640;-48
2023/05/11 05:42:49;;;;;;;4.90;1.40;;;;;;;10.74;100.00;101003.98;105399;1259;61262;-46
2023/05/11 05:45:19;;;;;;;6.30;1.20;;;;;;;10.84;100.00;101006.91;105257;1258;61427;-45
2023/05/11 05:47:47;;;;;;;3.60;1.00;;;;;;;10.92;100.00;101010.08;105341;1257;76298;-48
2023/05/11 05:50:15;;;;;;;1.30;0.70;;;;;;;10.98;100.00;101011.48;105285;1253;69310;-46
2023/05/11 05:52:42;;;;;;;1.10;0.70;;;;;;;11.02;100.00;101014.81;105532;1256;74826;-49
2023/05/11 05:55:10;;;;;;;0.80;0.60;;;;;;;11.04;100.00;101018.70;105309;1258;61161;-49
2023/05/11 05:57:37;;;;;;;3.40;0.80;;;;;;;11.05;100.00;101018.48;105280;1254;62749;-48
2023/05/11 06:00:05;;;;;;;1.10;0.60;;;;;;;11.07;100.00;101022.38;105353;1253;73841;-48
2023/05/11 06:02:38;;;;;;;4.50;0.60;;;;;;;11.09;100.00;101023.73;109100;1253;68820;-49
2023/05/11 06:05:06;;;;;;;4.00;0.60;;;;;;;11.13;100.00;101028.67;105838;1254;73250;-48
2023/05/11 06:07:33;;;;;;;5.30;0.70;;;;;;;11.16;100.00;101026.58;108002;1253;59621;-50
2023/05/11 06:10:01;;;;;;;2.20;0.50;;;;;;;11.20;100.00;101024.69;105146;1253;62227;-49
2023/05/11 06:12:28;;;;;;;3.50;0.50;;;;;;;11.24;100.00;101027.79;105092;1257;74870;-46
2023/05/11 06:14:56;;;;;;;0.70;0.60;;;;;;;11.30;100.00;101028.48;105108;1254;69409;-48
2023/05/11 06:17:23;;;;;;;0.80;0.50;;;;;;;11.38;100.00;101028.26;105617;1254;74740;-49
2023/05/11 06:19:50;;;;;;;2.80;0.50;;;;;;;11.46;100.00;101030.16;105037;1253;60939;-48
2023/05/11 06:22:18;;;;;;;0.60;0.40;;;;;;;11.51;100.00;101028.37;108951;1252;62856;-47
2023/05/11 06:24:46;;;;;;;1.60;0.40;;;;;;;11.55;100.00;101033.27;105362;1253;73422;-48
2023/05/11 06:27:13;;;;;;;0.90;0.50;;;;;;;11.56;100.00;101032.36;105042;1253;67699;-49
2023/05/11 06:29:43;;;;;;;0.90;0.60;;;;;;;11.56;100.00;101037.93;105087;1253;73400;-48
2023/05/11 06:32:10;;;;;;;1.10;0.50;;;;;;;11.57;100.00;101040.39;104792;1253;61419;-46
2023/05/11 06:34:38;;;;;;;1.70;0.60;;;;;;;11.60;100.00;101041.02;104844;1254;64318;-49
2023/05/11 06:37:05;;;;;;;3.00;0.50;;;;;;;11.66;100.00;101044.44;108352;1253;73941;-47
2023/05/11 06:39:36;;;;;;;2.10;0.50;;;;;;;11.71;100.00;101035.45;104695;1253;69927;-50
2023/05/11 06:42:05;;;;;;;2.60;0.50;;;;;;;11.79;100.00;101033.60;108345;1256;72876;-49
2023/05/11 06:44:33;;;;;;;3.90;0.60;;;;;;;11.90;100.00;101035.77;105320;1254;60374;-49
2023/05/11 06:47:00;;;;;;;1.40;0.50;;;;;;;12.01;100.00;101036.27;105313;1259;59590;-49
2023/05/11 06:49:26;;;;;;;2.40;0.60;;;;;;;12.11;100.00;101033.05;105396;1253;75804;-49
2023/05/11 06:51:53;;;;;;;1.00;0.40;;;;;;;12.22;100.00;101033.95;105293;1251;67848;-48
2023/05/11 06:54:21;;;;;;;1.30;0.50;;;;;;;12.33;100.00;101037.69;105440;1254;71531;-49
2023/05/11 06:56:47;;;;;;;4.10;0.70;;;;;;;12.42;100.00;101034.84;105294;1253;61103;-48
2023/05/11 06:59:14;;;;;;;1.50;0.50;;;;;;;12.48;100.00;101036.81;105381;1253;60783;-49
2023/05/11 07:01:41;;;;;;;2.10;0.40;;;;;;;12.54;100.00;101035.67;105347;1253;71877;-47
2023/05/11 07:04:08;;;;;;;0.70;0.50;;;;;;;12.59;100.00;101034.95;105464;1258;68619;-49
2023/05/11 07:06:34;;;;;;;2.80;0.70;;;;;;;12.66;100.00;101036.11;105292;1256;74779;-47
2023/05/11 07:09:02;;;;;;;0.90;0.40;;;;;;;12.75;100.00;101033.45;105182;1254;60054;-48
2023/05/11 07:11:29;;;;;;;3.60;0.60;;;;;;;12.82;100.00;101033.56;108725;1255;59670;-51
2023/05/11 07:13:56;;;;;;;1.40;0.50;;;;;;;12.89;100.00;101032.57;105438;1256;75282;-48
2023/05/11 07:16:23;;;;;;;1.60;0.50;;;;;;;12.97;100.00;101037.70;105280;1253;66535;-48
2023/05/11 07:18:49;;;;;;;4.50;0.50;;;;;;;13.05;100.00;101039.02;105312;1253;71426;-48
2023/05/11 07:21:16;;;;;;;3.80;0.60;;;;;;;13.13;100.00;101039.42;105347;1255;60738;-47
2023/05/11 07:23:43;;;;;;;1.30;0.50;;;;;;;13.18;100.00;101041.41;104948;1253;61519;-47
2023/05/11 07:26:10;;;;;;;2.60;0.90;;;;;;;13.19;100.00;101041.17;105279;1253;73954;-47
2023/05/11 07:28:37;;;;;;;1.40;0.70;;;;;;;13.17;100.00;101032.82;105192;1258;70032;-47
2023/05/11 07:31:04;;;;;;;0.80;0.50;;;;;;;13.16;100.00;101038.07;105256;1253;71111;-48
2023/05/11 07:33:32;;;;;;;1.90;0.50;;;;;;;13.18;100.00;101031.66;105957;1252;62426;-47
2023/05/11 07:35:59;;;;;;;2.70;0.50;;;;;;;13.27;100.00;101034.23;105648;1254;59604;-46
2023/05/11 07:38:25;;;;;;;1.10;0.40;;;;;;;13.36;100.00;101030.25;107509;1253;72930;-50
2023/05/11 07:40:52;;;;;;;0.70;0.60;;;;;;;13.41;100.00;101028.41;105421;1257;68254;-48
2023/05/11 07:43:19;;;;;;;0.50;0.40;;;;;;;13.49;100.00;101031.52;105357;1254;73946;-51
2023/05/11 07:45:46;;;;;;;0.40;0.40;;;;;;;13.57;100.00;101036.07;105411;1254;59760;-47
2023/05/11 07:48:12;;;;;;;2.90;0.80;;;;;;;13.63;100.00;101026.05;105470;1253;63109;-46
2023/05/11 07:50:41;;;;;;;1.20;0.80;;;;;;;13.68;100.00;101029.85;105458;1257;73486;-47
2023/05/11 07:53:08;;;;;;;1.50;0.60;;;;;;;13.73;100.00;101023.86;105295;1256;68177;-46
2023/05/11 07:55:34;;;;;;;1.40;0.50;;;;;;;13.80;100.00;101023.41;105375;1253;73143;-49
2023/05/11 07:58:01;;;;;;;2.50;0.80;;;;;;;13.82;100.00;101016.81;105356;1254;60531;-44
2023/05/11 08:00:28;;;;;;;2.80;0.70;;;;;;;13.79;100.00;101020.01;105415;1257;60464;-48
2023/05/11 08:02:55;;;;;;;2.70;0.60;;;;;;;13.75;100.00;101018.94;105422;1253;73003;-49
2023/05/11 08:05:22;;;;;;;2.70;0.60;;;;;;;13.66;100.00;101012.80;107404;1257;69399;-46
2023/05/11 08:07:49;;;;;;;1.20;0.50;;;;;;;13.63;100.00;101011.82;105419;1255;73340;-50
2023/05/11 08:10:16;;;;;;;1.50;0.40;;;;;;;13.69;100.00;101018.80;105348;1257;60910;-48
2023/05/11 08:12:42;;;;;;;0.90;0.40;;;;;;;13.78;100.00;101020.08;105376;1251;61124;-45
2023/05/11 08:15:10;;;;;;;2.00;0.50;;;;;;;13.81;100.00;101017.58;105441;1258;74162;-47
2023/05/11 08:17:36;;;;;;;0.70;0.40;;;;;;;13.83;100.00;101017.50;105299;1253;68592;-49
2023/05/11 08:20:05;;;;;;;1.60;0.40;;;;;;;13.85;100.00;101018.34;105213;1253;75137;-49
2023/05/11 08:22:32;;;;;;;0.50;0.50;;;;;;;13.85;100.00;101015.61;105301;1255;61463;-48
2023/05/11 08:24:59;;;;;;;0.80;0.50;;;;;;;13.83;100.00;101012.27;105303;1258;61364;-48
2023/05/11 08:27:26;;;;;;;0.70;0.50;;;;;;;13.86;100.00;101006.39;105997;1253;75916;-47
2023/05/11 08:29:53;;;;;;;0.40;0.40;;;;;;;13.97;100.00;101007.34;105270;1254;69888;-47
2023/05/11 08:32:20;;;;;;;1.50;0.40;;;;;;;14.12;100.00;101011.05;105375;1254;74390;-46
2023/05/11 08:34:47;;;;;;;0.40;0.40;;;;;;;14.23;100.00;101010.00;105396;1258;62385;-45
2023/05/11 08:37:14;;;;;;;4.00;0.30;;;;;;;14.32;100.00;101010.15;105391;1253;60435;-47
2023/05/11 08:39:41;;;;;;;0.50;0.40;;;;;;;14.32;100.00;101011.23;105278;1254;74342;-47
2023/05/11 08:42:12;;;;;;;1.40;0.40;;;;;;;14.25;100.00;101006.30;106625;1253;68988;-46
2023/05/11 08:44:39;;;;;;;0.80;0.40;;;;;;;14.18;100.00;101005.02;105501;1254;72980;-46
2023/05/11 08:47:06;;;;;;;0.70;0.40;;;;;;;14.14;100.00;101005.70;105242;1254;60460;-47
2023/05/11 08:49:50;;;;;;;0.50;0.40;;;;;;;14.16;100.00;101003.29;106280;1253;61527;-50
2023/05/11 08:52:17;;;;;;;0.50;0.30;;;;;;;14.18;100.00;101000.87;109054;1253;75315;-51
2023/05/11 08:54:45;;;;;;;3.80;0.40;;;;;;;14.16;100.00;101008.70;107145;1256;69182;-49
2023/05/11 08:57:12;;;;;;;0.30;0.30;;;;;;;14.15;100.00;101013.08;105459;1253;73753;-46
2023/05/11 08:59:43;;;;;;;0.80;0.30;;;;;;;14.17;100.00;101007.77;105260;1254;60617;-48
2023/05/11 09:02:13;;;;;;;0.40;0.30;;;;;;;14.19;100.00;101008.21;109017;1253;60628;-48
2023/05/11 09:04:40;;;;;;;0.50;0.30;;;;;;;14.17;100.00;101004.85;109018;1252;73024;-48
2023/05/11 09:07:08;;;;;;;1.20;0.30;;;;;;;14.18;100.00;101001.41;106779;1252;67805;-48
2023/05/11 09:09:35;;;;;;;0.80;0.30;;;;;;;14.23;100.00;101001.35;109025;1253;71036;-47
2023/05/11 09:12:02;;;;;;;0.40;0.20;;;;;;;14.37;100.00;100996.24;109131;1253;59055;-46
2023/05/11 09:14:29;;;;;;;0.50;0.20;;;;;;;14.56;100.00;100992.13;105441;1258;59362;-48
2023/05/11 09:16:57;;;;;;;1.70;0.20;;;;;;;14.77;100.00;100995.70;105520;1253;75837;-48
2023/05/11 09:19:24;;;;;;;2.00;0.30;;;;;;;14.98;100.00;100996.36;109018;1251;68289;-46
2023/05/11 09:21:51;;;;;;;3.30;0.40;;;;;;;15.17;100.00;100994.16;109080;1252;73211;-47
2023/05/11 09:24:19;;;;;;;0.80;0.30;;;;;;;15.32;100.00;100998.56;109122;1253;61790;-47
2023/05/11 09:26:46;;;;;;;0.40;0.40;;;;;;;15.39;100.00;101000.19;108737;1253;60755;-48
2023/05/11 09:29:12;;;;;;;3.30;0.40;;;;;;;15.32;100.00;100998.89;109059;1253;75385;-48
2023/05/11 09:31:44;;;;;;;2.90;0.60;;;;;;;15.27;100.00;100998.23;108951;1252;68043;-47
2023/05/11 09:34:21;;;;;;;0.50;0.30;;;;;;;15.25;100.00;100997.76;108869;1253;72713;-50
2023/05/11 09:36:55;;;;;;;0.50;0.30;;;;;;;15.24;100.00;100994.58;108981;1252;60520;-48
2023/05/11 09:39:35;;;;;;;2.10;0.40;;;;;;;15.19;100.00;100994.26;109120;1251;62772;-46
2023/05/11 09:42:21;;;;;;;0.70;0.30;;;;;;;15.15;100.00;100984.66;109063;1256;76123;-47
2023/05/11 09:44:48;;;;;;;0.40;0.30;;;;;;;15.16;100.00;100980.65;109063;1252;68309;-47
2023/05/11 09:47:19;;;;;;;0.80;0.40;;;;;;;15.18;100.00;100977.33;109011;1253;74940;-47
2023/05/11 09:49:46;;;;;;;0.80;0.30;;;;;;;15.26;100.00;100969.52;109170;1253;59092;-49
2023/05/11 09:52:17;;;;;;;3.60;0.80;;;;;;;15.39;100.00;100968.52;108934;1253;60402;-50
2023/05/11 09:54:45;;;;;;;1.90;0.30;;;;;;;15.54;100.00;100966.16;105971;1253;74297;-48
2023/05/11 09:57:26;;;;;;;0.70;0.40;;;;;;;15.67;100.00;100968.05;106208;1257;69686;-50
2023/05/11 09:59:53;;;;;;;0.70;0.40;;;;;;;15.78;100.00;100969.09;105413;1253;72855;-49
2023/05/11 10:02:24;;;;;;;0.80;0.50;;;;;;;15.88;100.00;100972.21;105294;1254;62011;-50
2023/05/11 10:04:53;;;;;;;1.40;0.30;;;;;;;15.94;100.00;100958.88;105063;1258;60397;-48
2023/05/11 10:07:29;;;;;;;0.30;0.30;;;;;;;15.94;100.00;100956.35;105086;1259;72024;-47
2023/05/11 10:09:57;;;;;;;0.50;0.30;;;;;;;15.90;100.00;100958.57;104916;1253;67592;-51
2023/05/11 10:12:24;;;;;;;0.70;0.40;;;;;;;15.77;100.00;100957.08;106213;1253;71783;-50
2023/05/11 10:15:13;;;;;;;3.50;0.60;;;;;;;15.56;100.00;100953.02;105582;1257;60691;-48
2023/05/11 10:17:43;;;;;;;1.80;0.50;;;;;;;15.41;100.00;100954.51;105338;1254;60511;-47
2023/05/11 10:20:10;;;;;;;0.50;0.30;;;;;;;15.29;100.00;100952.02;105288;1253;72424;-50
2023/05/11 10:22:37;;;;;;;0.70;0.40;;;;;;;15.22;100.00;100946.75;105124;1260;67613;-48
2023/05/11 10:25:05;;;;;;;1.10;0.40;;;;;;;15.13;100.00;100941.40;105237;1259;75071;-48
2023/05/11 10:27:32;;;;;;;3.40;0.60;;;;;;;15.07;100.00;100934.24;104793;1258;62595;-47
2023/05/11 10:29:58;;;;;;;1.20;0.40;;;;;;;15.14;100.00;100926.33;105200;1254;60294;-50
2023/05/11 10:32:26;;;;;;;0.50;0.40;;;;;;;15.24;100.00;100924.09;105219;1260;75206;-48
2023/05/11 10:34:53;;;;;;;0.40;0.30;;;;;;;15.32;100.00;100923.67;105420;1253;69288;-47
2023/05/11 10:37:20;;;;;;;0.40;0.30;;;;;;;15.42;100.00;100921.88;105404;1259;71355;-51
2023/05/11 10:39:48;;;;;;;5.00;0.40;;;;;;;15.52;100.00;100921.20;105456;1253;62437;-47
2023/05/11 10:42:48;;;;;;;0.40;0.40;;;;;;;15.64;100.00;100913.23;105540;1253;60566;-49
2023/05/11 10:45:40;;;;;;;0.40;0.30;;;;;;;15.75;100.00;100913.34;104867;1253;76458;-47
2023/05/11 10:48:10;;;;;;;2.20;0.40;;;;;;;15.87;100.00;100915.47;105874;1258;69196;-45
2023/05/11 10:50:46;;;;;;;0.90;0.40;;;;;;;15.92;100.00;100911.20;105314;1258;72929;-46
2023/05/11 10:53:36;;;;;;;1.00;0.30;;;;;;;15.84;100.00;100907.64;105264;1257;61212;-47
2023/05/11 10:56:39;;;;;;;3.70;0.60;;;;;;;15.71;100.00;100907.05;105259;1257;61015;-50
2023/05/11 10:59:15;;;;;;;0.90;0.50;;;;;;;15.68;100.00;100906.13;105492;1253;74163;-50
2023/05/11 11:01:42;;;;;;;1.00;0.40;;;;;;;15.72;100.00;100905.58;105479;1254;68560;-51
2023/05/11 11:04:10;;;;;;;2.40;0.40;;;;;;;15.70;100.00;100900.04;105340;1259;73474;-48
2023/05/11 11:06:39;;;;;;;0.70;0.40;;;;;;;15.72;100.00;100897.79;105465;1255;61445;-51
2023/05/11 11:09:11;;;;;;;0.70;0.40;;;;;;;15.75;100.00;100888.39;105763;1257;65116;-49
2023/05/11 11:11:39;;;;;;;1.90;0.30;;;;;;;15.80;100.00;100887.07;105551;1254;75944;-50
2023/05/11 11:14:08;;;;;;;0.80;0.40;;;;;;;15.84;100.00;100887.01;105367;1257;69394;-47
2023/05/11 11:16:36;;;;;;;1.40;0.40;;;;;;;15.86;100.00;100881.83;107461;1254;74474;-48
2023/05/11 11:19:31;;;;;;;1.50;0.40;;;;;;;15.90;100.00;100881.29;105238;1254;60372;-49